Terminal Aerodrome Forecast
Issued by NWS

Home | Current Version | Previous Version | Graphics & Text | Print | Product List | Glossary On
Versions: 1 2 3 4 5 6 7 8 9 10 11 12 13 14 15 16 17 18 19 20 21 22 23 24
287
FTUS43 KLOT 240257 AAA
TAFDPA
TAF AMD
KDPA 240257Z 2403/2424 11005KT P6SM FEW250
     FM241400 19008KT P6SM FEW150
     FM241900 17007KT P6SM FEW060 FEW150
     FM242300 10008KT P6SM FEW150=

USA.gov is the U.S. government's official web portal to all federal, state and local government web resources and services.